sensor_id;sensor_type;location;lat;lon;timestamp;temperature;humidity
13960;DHT22;7052;51.050;3.716;2023-02-28T00:00:53;3.00;94.10
13960;DHT22;7052;51.050;3.716;2023-02-28T00:03:20;2.90;94.10
13960;DHT22;7052;51.050;3.716;2023-02-28T00:05:48;2.90;94.10
13960;DHT22;7052;51.050;3.716;2023-02-28T00:08:16;3.00;94.10
13960;DHT22;7052;51.050;3.716;2023-02-28T00:10:47;2.90;94.10
13960;DHT22;7052;51.050;3.716;2023-02-28T00:13:14;2.90;94.10
13960;DHT22;7052;51.050;3.716;2023-02-28T00:15:42;2.80;94.10
13960;DHT22;7052;51.050;3.716;2023-02-28T00:18:10;2.90;94.20
13960;DHT22;7052;51.050;3.716;2023-02-28T00:20:40;2.90;94.20
13960;DHT22;7052;51.050;3.716;2023-02-28T00:23:11;2.90;94.20
13960;DHT22;7052;51.050;3.716;2023-02-28T00:25:39;2.90;94.30
13960;DHT22;7052;51.050;3.716;2023-02-28T00:28:07;2.90;94.50
13960;DHT22;7052;51.050;3.716;2023-02-28T00:30:34;2.90;94.50
13960;DHT22;7052;51.050;3.716;2023-02-28T00:33:01;2.90;94.70
13960;DHT22;7052;51.050;3.716;2023-02-28T00:35:28;2.80;94.70
13960;DHT22;7052;51.050;3.716;2023-02-28T00:37:57;2.90;94.90
13960;DHT22;7052;51.050;3.716;2023-02-28T00:40:25;2.80;94.90
13960;DHT22;7052;51.050;3.716;2023-02-28T00:42:59;2.80;95.00
13960;DHT22;7052;51.050;3.716;2023-02-28T00:45:27;2.90;95.20
13960;DHT22;7052;51.050;3.716;2023-02-28T00:47:54;2.80;95.20
13960;DHT22;7052;51.050;3.716;2023-02-28T00:50:22;2.80;95.30
13960;DHT22;7052;51.050;3.716;2023-02-28T00:52:48;2.80;95.40
13960;DHT22;7052;51.050;3.716;2023-02-28T00:55:16;2.80;95.60
13960;DHT22;7052;51.050;3.716;2023-02-28T00:57:44;2.70;95.70
13960;DHT22;7052;51.050;3.716;2023-02-28T01:00:13;2.70;95.80
13960;DHT22;7052;51.050;3.716;2023-02-28T01:02:42;2.70;95.90
13960;DHT22;7052;51.050;3.716;2023-02-28T01:05:09;2.70;96.00
13960;DHT22;7052;51.050;3.716;2023-02-28T01:07:38;2.70;96.10
13960;DHT22;7052;51.050;3.716;2023-02-28T01:10:07;2.70;96.20
13960;DHT22;7052;51.050;3.716;2023-02-28T01:12:34;2.70;96.30
13960;DHT22;7052;51.050;3.716;2023-02-28T01:15:01;2.70;96.20
13960;DHT22;7052;51.050;3.716;2023-02-28T01:17:29;2.70;96.30
13960;DHT22;7052;51.050;3.716;2023-02-28T01:19:58;2.70;96.30
13960;DHT22;7052;51.050;3.716;2023-02-28T01:22:25;2.70;96.80
13960;DHT22;7052;51.050;3.716;2023-02-28T01:24:53;2.70;96.50
13960;DHT22;7052;51.050;3.716;2023-02-28T01:27:20;2.70;96.70
13960;DHT22;7052;51.050;3.716;2023-02-28T01:29:47;2.70;96.80
13960;DHT22;7052;51.050;3.716;2023-02-28T01:32:14;2.80;96.90
13960;DHT22;7052;51.050;3.716;2023-02-28T01:34:45;2.70;96.90
13960;DHT22;7052;51.050;3.716;2023-02-28T01:37:11;2.60;97.10
13960;DHT22;7052;51.050;3.716;2023-02-28T01:39:38;2.60;97.30
13960;DHT22;7052;51.050;3.716;2023-02-28T01:42:07;2.60;97.60
13960;DHT22;7052;51.050;3.716;2023-02-28T01:44:58;2.60;97.80
13960;DHT22;7052;51.050;3.716;2023-02-28T01:47:30;2.60;98.10
13960;DHT22;7052;51.050;3.716;2023-02-28T01:50:02;2.60;98.30
13960;DHT22;7052;51.050;3.716;2023-02-28T01:52:32;2.60;98.50
13960;DHT22;7052;51.050;3.716;2023-02-28T01:55:01;2.60;98.60
13960;DHT22;7052;51.050;3.716;2023-02-28T01:57:33;2.70;98.80
13960;DHT22;7052;51.050;3.716;2023-02-28T02:00:08;2.50;99.00
13960;DHT22;7052;51.050;3.716;2023-02-28T02:02:37;2.40;99.20
13960;DHT22;7052;51.050;3.716;2023-02-28T02:05:08;2.40;99.40
13960;DHT22;7052;51.050;3.716;2023-02-28T02:07:38;2.40;99.70
13960;DHT22;7052;51.050;3.716;2023-02-28T02:10:11;2.40;99.90
13960;DHT22;7052;51.050;3.716;2023-02-28T02:13:01;2.40;99.90
13960;DHT22;7052;51.050;3.716;2023-02-28T02:15:35;2.40;99.90
13960;DHT22;7052;51.050;3.716;2023-02-28T02:18:13;2.30;99.90
13960;DHT22;7052;51.050;3.716;2023-02-28T02:23:58;2.30;99.90
13960;DHT22;7052;51.050;3.716;2023-02-28T02:26:43;2.30;99.90
13960;DHT22;7052;51.050;3.716;2023-02-28T02:32:48;2.30;99.90
13960;DHT22;7052;51.050;3.716;2023-02-28T02:35:26;2.30;99.90
13960;DHT22;7052;51.050;3.716;2023-02-28T02:38:05;2.20;99.90
13960;DHT22;7052;51.050;3.716;2023-02-28T02:40:37;2.20;99.90
13960;DHT22;7052;51.050;3.716;2023-02-28T02:43:08;2.20;99.90
13960;DHT22;7052;51.050;3.716;2023-02-28T02:45:40;2.20;99.90
13960;DHT22;7052;51.050;3.716;2023-02-28T02:48:11;2.20;99.90
13960;DHT22;7052;51.050;3.716;2023-02-28T02:50:45;2.10;99.90
13960;DHT22;7052;51.050;3.716;2023-02-28T02:53:17;2.10;99.90
13960;DHT22;7052;51.050;3.716;2023-02-28T02:55:48;2.10;99.90
13960;DHT22;7052;51.050;3.716;2023-02-28T02:58:24;2.10;99.90
13960;DHT22;7052;51.050;3.716;2023-02-28T03:00:54;2.10;99.90
13960;DHT22;7052;51.050;3.716;2023-02-28T03:03:29;2.10;99.90
13960;DHT22;7052;51.050;3.716;2023-02-28T03:06:00;2.10;99.90
13960;DHT22;7052;51.050;3.716;2023-02-28T03:08:36;2.10;99.90
13960;DHT22;7052;51.050;3.716;2023-02-28T03:11:07;2.00;99.90
13960;DHT22;7052;51.050;3.716;2023-02-28T03:13:52;2.00;99.90
13960;DHT22;7052;51.050;3.716;2023-02-28T03:16:33;2.00;99.90
13960;DHT22;7052;51.050;3.716;2023-02-28T03:19:23;2.00;99.90
13960;DHT22;7052;51.050;3.716;2023-02-28T03:22:01;2.00;99.90
13960;DHT22;7052;51.050;3.716;2023-02-28T03:24:34;2.00;99.90
13960;DHT22;7052;51.050;3.716;2023-02-28T03:27:09;2.00;99.90
13960;DHT22;7052;51.050;3.716;2023-02-28T03:29:39;2.00;99.90
13960;DHT22;7052;51.050;3.716;2023-02-28T03:32:16;2.00;99.90
13960;DHT22;7052;51.050;3.716;2023-02-28T03:34:50;2.00;99.90
13960;DHT22;7052;51.050;3.716;2023-02-28T03:37:22;2.00;99.90
13960;DHT22;7052;51.050;3.716;2023-02-28T03:39:55;2.10;99.90
13960;DHT22;7052;51.050;3.716;2023-02-28T03:42:23;2.10;99.90
13960;DHT22;7052;51.050;3.716;2023-02-28T03:44:54;2.10;99.90
13960;DHT22;7052;51.050;3.716;2023-02-28T03:47:26;2.10;99.90
13960;DHT22;7052;51.050;3.716;2023-02-28T03:49:57;2.20;99.90
13960;DHT22;7052;51.050;3.716;2023-02-28T03:52:29;2.20;99.90
13960;DHT22;7052;51.050;3.716;2023-02-28T03:55:03;2.20;99.90
13960;DHT22;7052;51.050;3.716;2023-02-28T03:57:38;2.20;99.90
13960;DHT22;7052;51.050;3.716;2023-02-28T04:00:09;2.20;99.90
13960;DHT22;7052;51.050;3.716;2023-02-28T04:02:39;2.30;99.90
13960;DHT22;7052;51.050;3.716;2023-02-28T04:05:06;2.30;99.90
13960;DHT22;7052;51.050;3.716;2023-02-28T04:07:35;2.40;99.90
13960;DHT22;7052;51.050;3.716;2023-02-28T04:10:03;2.40;99.90
13960;DHT22;7052;51.050;3.716;2023-02-28T04:12:30;2.30;99.90
13960;DHT22;7052;51.050;3.716;2023-02-28T04:14:59;2.40;99.90
13960;DHT22;7052;51.050;3.716;2023-02-28T04:17:27;2.40;99.90
13960;DHT22;7052;51.050;3.716;2023-02-28T04:19:55;2.40;99.90
13960;DHT22;7052;51.050;3.716;2023-02-28T04:22:23;2.40;99.90
13960;DHT22;7052;51.050;3.716;2023-02-28T04:24:53;2.50;99.90
13960;DHT22;7052;51.050;3.716;2023-02-28T04:27:20;2.50;99.90
13960;DHT22;7052;51.050;3.716;2023-02-28T04:29:47;2.50;99.90
13960;DHT22;7052;51.050;3.716;2023-02-28T04:32:14;2.60;99.90
13960;DHT22;7052;51.050;3.716;2023-02-28T04:34:41;2.60;99.90
13960;DHT22;7052;51.050;3.716;2023-02-28T04:37:10;2.60;99.90
13960;DHT22;7052;51.050;3.716;2023-02-28T04:39:39;2.70;99.90
13960;DHT22;7052;51.050;3.716;2023-02-28T04:42:09;2.70;99.90
13960;DHT22;7052;51.050;3.716;2023-02-28T04:44:36;2.70;99.90
13960;DHT22;7052;51.050;3.716;2023-02-28T04:47:02;2.80;99.90
13960;DHT22;7052;51.050;3.716;2023-02-28T04:49:29;2.80;99.90
13960;DHT22;7052;51.050;3.716;2023-02-28T04:51:56;2.90;99.90
13960;DHT22;7052;51.050;3.716;2023-02-28T04:54:23;2.80;99.90
13960;DHT22;7052;51.050;3.716;2023-02-28T04:56:50;2.90;99.90
13960;DHT22;7052;51.050;3.716;2023-02-28T04:59:19;2.90;99.90
13960;DHT22;7052;51.050;3.716;2023-02-28T05:01:47;2.90;99.90
13960;DHT22;7052;51.050;3.716;2023-02-28T05:04:14;2.90;99.90
13960;DHT22;7052;51.050;3.716;2023-02-28T05:06:41;2.90;99.90
13960;DHT22;7052;51.050;3.716;2023-02-28T05:09:08;2.90;99.90
13960;DHT22;7052;51.050;3.716;2023-02-28T05:11:37;3.00;99.90
13960;DHT22;7052;51.050;3.716;2023-02-28T05:14:06;3.00;99.90
13960;DHT22;7052;51.050;3.716;2023-02-28T05:16:35;3.00;99.90
13960;DHT22;7052;51.050;3.716;2023-02-28T05:19:02;3.00;99.90
13960;DHT22;7052;51.050;3.716;2023-02-28T05:21:30;3.00;99.90
13960;DHT22;7052;51.050;3.716;2023-02-28T05:23:59;3.00;99.90
13960;DHT22;7052;51.050;3.716;2023-02-28T05:26:28;3.00;99.90
13960;DHT22;7052;51.050;3.716;2023-02-28T05:28:55;3.00;99.90
13960;DHT22;7052;51.050;3.716;2023-02-28T05:31:22;3.00;99.90
13960;DHT22;7052;51.050;3.716;2023-02-28T05:33:50;3.00;99.90
13960;DHT22;7052;51.050;3.716;2023-02-28T05:36:18;3.00;99.90
13960;DHT22;7052;51.050;3.716;2023-02-28T05:38:46;3.00;99.90
13960;DHT22;7052;51.050;3.716;2023-02-28T05:41:14;3.00;99.90
13960;DHT22;7052;51.050;3.716;2023-02-28T05:43:44;3.00;99.90
13960;DHT22;7052;51.050;3.716;2023-02-28T05:46:12;3.10;99.90
13960;DHT22;7052;51.050;3.716;2023-02-28T05:48:41;3.10;99.90
13960;DHT22;7052;51.050;3.716;2023-02-28T05:51:11;3.10;99.90
13960;DHT22;7052;51.050;3.716;2023-02-28T05:53:38;3.00;99.90
13960;DHT22;7052;51.050;3.716;2023-02-28T05:56:05;3.00;99.90
13960;DHT22;7052;51.050;3.716;2023-02-28T05:58:32;3.00;99.90
13960;DHT22;7052;51.050;3.716;2023-02-28T06:01:18;3.00;99.90
13960;DHT22;7052;51.050;3.716;2023-02-28T06:03:49;3.00;99.90
13960;DHT22;7052;51.050;3.716;2023-02-28T06:06:17;3.00;99.90
13960;DHT22;7052;51.050;3.716;2023-02-28T06:08:44;3.10;99.90
13960;DHT22;7052;51.050;3.716;2023-02-28T06:11:11;3.10;99.90
13960;DHT22;7052;51.050;3.716;2023-02-28T06:13:40;3.10;99.90
13960;DHT22;7052;51.050;3.716;2023-02-28T06:16:10;3.10;99.90
13960;DHT22;7052;51.050;3.716;2023-02-28T06:18:37;3.10;99.90
13960;DHT22;7052;51.050;3.716;2023-02-28T06:21:04;3.10;99.90
13960;DHT22;7052;51.050;3.716;2023-02-28T06:23:36;3.10;99.90
13960;DHT22;7052;51.050;3.716;2023-02-28T06:26:05;3.20;99.90
13960;DHT22;7052;51.050;3.716;2023-02-28T06:28:35;3.10;99.90
13960;DHT22;7052;51.050;3.716;2023-02-28T06:31:07;3.20;99.90
13960;DHT22;7052;51.050;3.716;2023-02-28T06:33:34;3.20;99.90
13960;DHT22;7052;51.050;3.716;2023-02-28T06:36:02;3.20;99.90
13960;DHT22;7052;51.050;3.716;2023-02-28T06:38:31;3.20;99.90
13960;DHT22;7052;51.050;3.716;2023-02-28T06:41:06;3.20;99.90
13960;DHT22;7052;51.050;3.716;2023-02-28T06:43:37;3.20;99.90
13960;DHT22;7052;51.050;3.716;2023-02-28T06:46:10;3.20;99.90
13960;DHT22;7052;51.050;3.716;2023-02-28T06:48:40;3.20;99.90
13960;DHT22;7052;51.050;3.716;2023-02-28T06:51:11;3.20;99.90
13960;DHT22;7052;51.050;3.716;2023-02-28T06:53:39;3.20;99.90
13960;DHT22;7052;51.050;3.716;2023-02-28T06:56:11;3.30;99.90
13960;DHT22;7052;51.050;3.716;2023-02-28T06:58:38;3.30;99.90
13960;DHT22;7052;51.050;3.716;2023-02-28T07:01:05;3.30;99.90
13960;DHT22;7052;51.050;3.716;2023-02-28T07:03:34;3.40;99.90
13960;DHT22;7052;51.050;3.716;2023-02-28T07:06:01;3.30;99.90
13960;DHT22;7052;51.050;3.716;2023-02-28T07:08:31;3.40;99.90
13960;DHT22;7052;51.050;3.716;2023-02-28T07:11:02;3.50;99.90
13960;DHT22;7052;51.050;3.716;2023-02-28T07:13:31;3.40;99.90
13960;DHT22;7052;51.050;3.716;2023-02-28T07:16:05;3.40;99.90
13960;DHT22;7052;51.050;3.716;2023-02-28T07:18:34;3.40;99.90
13960;DHT22;7052;51.050;3.716;2023-02-28T07:21:02;3.50;99.40
13960;DHT22;7052;51.050;3.716;2023-02-28T07:23:29;3.50;98.80
13960;DHT22;7052;51.050;3.716;2023-02-28T07:25:56;3.50;98.80
13960;DHT22;7052;51.050;3.716;2023-02-28T07:28:25;3.50;98.50
13960;DHT22;7052;51.050;3.716;2023-02-28T07:30:55;3.50;98.70
13960;DHT22;7052;51.050;3.716;2023-02-28T07:33:22;3.50;98.20
13960;DHT22;7052;51.050;3.716;2023-02-28T07:35:51;3.50;98.30
13960;DHT22;7052;51.050;3.716;2023-02-28T07:38:19;3.60;98.40
13960;DHT22;7052;51.050;3.716;2023-02-28T07:40:48;3.60;98.40
13960;DHT22;7052;51.050;3.716;2023-02-28T07:43:15;3.50;98.40
13960;DHT22;7052;51.050;3.716;2023-02-28T07:45:42;3.50;98.60
13960;DHT22;7052;51.050;3.716;2023-02-28T07:48:14;3.60;98.80
13960;DHT22;7052;51.050;3.716;2023-02-28T07:50:41;3.60;98.30
13960;DHT22;7052;51.050;3.716;2023-02-28T07:53:13;3.70;98.00
13960;DHT22;7052;51.050;3.716;2023-02-28T07:55:40;3.70;97.90
13960;DHT22;7052;51.050;3.716;2023-02-28T07:58:07;3.70;97.90
13960;DHT22;7052;51.050;3.716;2023-02-28T08:00:36;3.80;97.70
13960;DHT22;7052;51.050;3.716;2023-02-28T08:03:05;3.80;97.70
13960;DHT22;7052;51.050;3.716;2023-02-28T08:05:38;3.80;97.70
13960;DHT22;7052;51.050;3.716;2023-02-28T08:08:09;3.80;97.30
13960;DHT22;7052;51.050;3.716;2023-02-28T08:10:36;3.90;97.20
13960;DHT22;7052;51.050;3.716;2023-02-28T08:13:04;3.90;97.00
13960;DHT22;7052;51.050;3.716;2023-02-28T08:15:32;3.90;96.80
13960;DHT22;7052;51.050;3.716;2023-02-28T08:18:00;4.00;96.80
13960;DHT22;7052;51.050;3.716;2023-02-28T08:20:27;4.00;96.70
13960;DHT22;7052;51.050;3.716;2023-02-28T08:22:55;4.00;96.60
13960;DHT22;7052;51.050;3.716;2023-02-28T08:25:22;4.10;96.60
13960;DHT22;7052;51.050;3.716;2023-02-28T08:27:50;4.10;96.60
13960;DHT22;7052;51.050;3.716;2023-02-28T08:30:19;4.10;96.30
13960;DHT22;7052;51.050;3.716;2023-02-28T08:32:46;4.30;96.30
13960;DHT22;7052;51.050;3.716;2023-02-28T08:35:15;4.40;95.70
13960;DHT22;7052;51.050;3.716;2023-02-28T08:37:42;4.40;95.70
13960;DHT22;7052;51.050;3.716;2023-02-28T08:40:11;4.40;95.50
13960;DHT22;7052;51.050;3.716;2023-02-28T08:42:43;4.40;95.60
13960;DHT22;7052;51.050;3.716;2023-02-28T08:45:13;4.40;95.80
13960;DHT22;7052;51.050;3.716;2023-02-28T08:47:41;4.40;95.70
13960;DHT22;7052;51.050;3.716;2023-02-28T08:50:09;4.40;95.70
13960;DHT22;7052;51.050;3.716;2023-02-28T08:52:42;4.40;95.60
13960;DHT22;7052;51.050;3.716;2023-02-28T08:55:12;4.50;95.30
13960;DHT22;7052;51.050;3.716;2023-02-28T08:57:40;4.40;95.50
13960;DHT22;7052;51.050;3.716;2023-02-28T09:00:08;4.40;95.20
13960;DHT22;7052;51.050;3.716;2023-02-28T09:02:39;4.40;95.30
13960;DHT22;7052;51.050;3.716;2023-02-28T09:05:09;4.50;95.40
13960;DHT22;7052;51.050;3.716;2023-02-28T09:07:36;4.50;95.20
13960;DHT22;7052;51.050;3.716;2023-02-28T09:10:03;4.60;95.30
13960;DHT22;7052;51.050;3.716;2023-02-28T09:12:34;4.60;94.70
13960;DHT22;7052;51.050;3.716;2023-02-28T09:15:02;4.60;93.40
13960;DHT22;7052;51.050;3.716;2023-02-28T09:17:29;4.60;93.30
13960;DHT22;7052;51.050;3.716;2023-02-28T09:19:56;4.60;92.60
13960;DHT22;7052;51.050;3.716;2023-02-28T09:22:23;4.60;92.10
13960;DHT22;7052;51.050;3.716;2023-02-28T09:24:57;4.60;91.10
13960;DHT22;7052;51.050;3.716;2023-02-28T09:27:24;4.60;90.90
13960;DHT22;7052;51.050;3.716;2023-02-28T09:29:55;4.60;91.00
13960;DHT22;7052;51.050;3.716;2023-02-28T09:32:23;4.60;89.90
13960;DHT22;7052;51.050;3.716;2023-02-28T09:34:50;4.60;87.60
13960;DHT22;7052;51.050;3.716;2023-02-28T09:37:19;4.60;84.10
13960;DHT22;7052;51.050;3.716;2023-02-28T09:39:46;4.60;85.00
13960;DHT22;7052;51.050;3.716;2023-02-28T09:42:21;4.60;80.90
13960;DHT22;7052;51.050;3.716;2023-02-28T09:44:49;4.60;79.90
13960;DHT22;7052;51.050;3.716;2023-02-28T09:47:31;4.60;80.30
13960;DHT22;7052;51.050;3.716;2023-02-28T09:50:08;4.50;80.50
13960;DHT22;7052;51.050;3.716;2023-02-28T09:52:40;4.50;80.70
13960;DHT22;7052;51.050;3.716;2023-02-28T09:55:28;4.50;78.70
13960;DHT22;7052;51.050;3.716;2023-02-28T09:57:56;4.50;80.00
13960;DHT22;7052;51.050;3.716;2023-02-28T10:00:32;4.50;79.50
13960;DHT22;7052;51.050;3.716;2023-02-28T10:03:13;4.60;77.30
13960;DHT22;7052;51.050;3.716;2023-02-28T10:05:52;4.70;74.30
13960;DHT22;7052;51.050;3.716;2023-02-28T10:08:23;4.70;72.20
13960;DHT22;7052;51.050;3.716;2023-02-28T10:10:55;4.80;68.60
13960;DHT22;7052;51.050;3.716;2023-02-28T10:13:27;4.80;67.00
13960;DHT22;7052;51.050;3.716;2023-02-28T10:16:01;4.80;68.20
13960;DHT22;7052;51.050;3.716;2023-02-28T10:18:40;4.80;67.40
13960;DHT22;7052;51.050;3.716;2023-02-28T10:21:17;4.80;67.10
13960;DHT22;7052;51.050;3.716;2023-02-28T10:23:48;4.90;66.70
13960;DHT22;7052;51.050;3.716;2023-02-28T10:26:17;4.90;63.40
13960;DHT22;7052;51.050;3.716;2023-02-28T10:28:51;5.00;64.60
13960;DHT22;7052;51.050;3.716;2023-02-28T10:31:20;5.10;63.00
13960;DHT22;7052;51.050;3.716;2023-02-28T10:33:49;5.20;62.60
13960;DHT22;7052;51.050;3.716;2023-02-28T10:36:19;5.20;58.60
13960;DHT22;7052;51.050;3.716;2023-02-28T10:38:47;5.30;57.00
13960;DHT22;7052;51.050;3.716;2023-02-28T10:41:26;5.30;56.50
13960;DHT22;7052;51.050;3.716;2023-02-28T10:44:13;5.40;56.40
13960;DHT22;7052;51.050;3.716;2023-02-28T10:46:44;5.70;55.50
13960;DHT22;7052;51.050;3.716;2023-02-28T10:49:19;5.50;54.90
13960;DHT22;7052;51.050;3.716;2023-02-28T10:51:49;5.60;52.80
13960;DHT22;7052;51.050;3.716;2023-02-28T10:54:24;5.70;52.10
13960;DHT22;7052;51.050;3.716;2023-02-28T10:57:11;5.80;51.70
13960;DHT22;7052;51.050;3.716;2023-02-28T10:59:41;5.80;52.40
13960;DHT22;7052;51.050;3.716;2023-02-28T11:02:31;5.90;51.70
13960;DHT22;7052;51.050;3.716;2023-02-28T11:05:02;6.10;51.00
13960;DHT22;7052;51.050;3.716;2023-02-28T11:07:29;6.40;49.80
13960;DHT22;7052;51.050;3.716;2023-02-28T11:09:58;6.60;50.00
13960;DHT22;7052;51.050;3.716;2023-02-28T11:12:26;6.80;49.80
13960;DHT22;7052;51.050;3.716;2023-02-28T11:14:56;7.00;47.00
13960;DHT22;7052;51.050;3.716;2023-02-28T11:17:26;7.00;46.80
13960;DHT22;7052;51.050;3.716;2023-02-28T11:20:02;6.90;46.00
13960;DHT22;7052;51.050;3.716;2023-02-28T11:22:36;6.80;46.40
13960;DHT22;7052;51.050;3.716;2023-02-28T11:25:09;6.70;46.10
13960;DHT22;7052;51.050;3.716;2023-02-28T11:27:48;6.70;46.20
13960;DHT22;7052;51.050;3.716;2023-02-28T11:30:36;6.70;46.70
13960;DHT22;7052;51.050;3.716;2023-02-28T11:33:25;6.70;46.40
13960;DHT22;7052;51.050;3.716;2023-02-28T11:36:04;6.80;46.60
13960;DHT22;7052;51.050;3.716;2023-02-28T11:38:36;6.90;46.40
13960;DHT22;7052;51.050;3.716;2023-02-28T11:41:15;6.90;46.10
13960;DHT22;7052;51.050;3.716;2023-02-28T11:46:56;7.00;45.30
13960;DHT22;7052;51.050;3.716;2023-02-28T11:49:31;7.00;44.70
13960;DHT22;7052;51.050;3.716;2023-02-28T11:52:19;7.00;44.90
13960;DHT22;7052;51.050;3.716;2023-02-28T11:54:59;7.00;45.40
13960;DHT22;7052;51.050;3.716;2023-02-28T11:57:35;7.00;44.80
13960;DHT22;7052;51.050;3.716;2023-02-28T12:00:25;7.00;45.10
13960;DHT22;7052;51.050;3.716;2023-02-28T12:03:03;7.20;44.10
13960;DHT22;7052;51.050;3.716;2023-02-28T12:05:41;7.20;44.10
13960;DHT22;7052;51.050;3.716;2023-02-28T12:08:26;7.30;43.00
13960;DHT22;7052;51.050;3.716;2023-02-28T12:11:06;7.30;42.80
13960;DHT22;7052;51.050;3.716;2023-02-28T12:13:46;7.40;42.60
13960;DHT22;7052;51.050;3.716;2023-02-28T12:16:33;7.40;42.20
13960;DHT22;7052;51.050;3.716;2023-02-28T12:19:22;7.40;42.20
13960;DHT22;7052;51.050;3.716;2023-02-28T12:22:05;7.40;41.80
13960;DHT22;7052;51.050;3.716;2023-02-28T12:25:00;7.40;40.90
13960;DHT22;7052;51.050;3.716;2023-02-28T12:27:33;7.40;41.30
13960;DHT22;7052;51.050;3.716;2023-02-28T12:30:04;7.30;41.40
13960;DHT22;7052;51.050;3.716;2023-02-28T12:32:36;7.30;41.90
13960;DHT22;7052;51.050;3.716;2023-02-28T12:35:11;7.30;41.50
13960;DHT22;7052;51.050;3.716;2023-02-28T12:37:43;7.30;40.40
13960;DHT22;7052;51.050;3.716;2023-02-28T12:40:44;7.40;40.30
13960;DHT22;7052;51.050;3.716;2023-02-28T12:43:13;7.40;39.50
13960;DHT22;7052;51.050;3.716;2023-02-28T12:45:45;7.40;38.80
13960;DHT22;7052;51.050;3.716;2023-02-28T12:48:18;7.50;37.60
13960;DHT22;7052;51.050;3.716;2023-02-28T12:50:47;7.40;38.10
13960;DHT22;7052;51.050;3.716;2023-02-28T12:53:18;7.40;38.50
13960;DHT22;7052;51.050;3.716;2023-02-28T12:55:56;7.30;37.50
13960;DHT22;7052;51.050;3.716;2023-02-28T12:58:30;7.30;37.00
13960;DHT22;7052;51.050;3.716;2023-02-28T13:08:03;7.30;35.80
13960;DHT22;7052;51.050;3.716;2023-02-28T13:10:40;7.30;36.20
13960;DHT22;7052;51.050;3.716;2023-02-28T13:13:14;7.40;36.30
13960;DHT22;7052;51.050;3.716;2023-02-28T13:15:57;7.40;35.50
13960;DHT22;7052;51.050;3.716;2023-02-28T13:18:30;7.40;35.20
13960;DHT22;7052;51.050;3.716;2023-02-28T13:20:58;7.50;35.20
13960;DHT22;7052;51.050;3.716;2023-02-28T13:29:34;7.50;35.60
13960;DHT22;7052;51.050;3.716;2023-02-28T13:35:35;7.50;34.70
13960;DHT22;7052;51.050;3.716;2023-02-28T13:38:34;7.50;34.50
13960;DHT22;7052;51.050;3.716;2023-02-28T13:44:07;7.50;34.80
13960;DHT22;7052;51.050;3.716;2023-02-28T13:49:29;7.60;34.70
13960;DHT22;7052;51.050;3.716;2023-02-28T13:52:08;7.50;34.70
13960;DHT22;7052;51.050;3.716;2023-02-28T13:54:51;7.60;34.10
13960;DHT22;7052;51.050;3.716;2023-02-28T13:57:30;7.50;34.30
13960;DHT22;7052;51.050;3.716;2023-02-28T14:00:15;7.50;34.50
13960;DHT22;7052;51.050;3.716;2023-02-28T14:03:05;7.60;34.10
13960;DHT22;7052;51.050;3.716;2023-02-28T14:05:37;7.50;34.20
13960;DHT22;7052;51.050;3.716;2023-02-28T14:08:08;7.40;35.10
13960;DHT22;7052;51.050;3.716;2023-02-28T14:10:42;7.40;34.80
13960;DHT22;7052;51.050;3.716;2023-02-28T14:13:37;7.40;34.50
13960;DHT22;7052;51.050;3.716;2023-02-28T14:16:12;7.40;34.70
13960;DHT22;7052;51.050;3.716;2023-02-28T14:18:50;7.50;35.00
13960;DHT22;7052;51.050;3.716;2023-02-28T14:21:23;7.40;35.20
13960;DHT22;7052;51.050;3.716;2023-02-28T14:27:21;7.30;35.10
13960;DHT22;7052;51.050;3.716;2023-02-28T14:30:15;7.30;35.30
13960;DHT22;7052;51.050;3.716;2023-02-28T14:33:05;7.30;35.60
13960;DHT22;7052;51.050;3.716;2023-02-28T14:36:01;7.30;36.10
13960;DHT22;7052;51.050;3.716;2023-02-28T14:38:32;7.30;36.20
13960;DHT22;7052;51.050;3.716;2023-02-28T14:41:05;7.40;35.90
13960;DHT22;7052;51.050;3.716;2023-02-28T14:43:33;7.40;35.40
13960;DHT22;7052;51.050;3.716;2023-02-28T14:46:07;7.40;35.70
13960;DHT22;7052;51.050;3.716;2023-02-28T14:55:27;7.50;35.30
13960;DHT22;7052;51.050;3.716;2023-02-28T14:57:56;7.40;35.20
13960;DHT22;7052;51.050;3.716;2023-02-28T15:00:26;7.40;35.50
13960;DHT22;7052;51.050;3.716;2023-02-28T15:02:55;7.30;35.60
13960;DHT22;7052;51.050;3.716;2023-02-28T15:05:27;7.20;36.30
13960;DHT22;7052;51.050;3.716;2023-02-28T15:08:04;7.20;36.70
13960;DHT22;7052;51.050;3.716;2023-02-28T15:10:36;7.20;36.70
13960;DHT22;7052;51.050;3.716;2023-02-28T15:13:10;7.20;36.40
13960;DHT22;7052;51.050;3.716;2023-02-28T15:15:45;7.30;36.00
13960;DHT22;7052;51.050;3.716;2023-02-28T15:18:23;7.40;35.90
13960;DHT22;7052;51.050;3.716;2023-02-28T15:20:53;7.20;36.20
13960;DHT22;7052;51.050;3.716;2023-02-28T15:23:22;7.20;36.30
13960;DHT22;7052;51.050;3.716;2023-02-28T15:25:53;7.20;36.20
13960;DHT22;7052;51.050;3.716;2023-02-28T15:28:22;7.00;36.50
13960;DHT22;7052;51.050;3.716;2023-02-28T15:30:54;7.00;36.60
13960;DHT22;7052;51.050;3.716;2023-02-28T15:33:22;7.00;36.60
13960;DHT22;7052;51.050;3.716;2023-02-28T15:35:51;6.90;37.00
13960;DHT22;7052;51.050;3.716;2023-02-28T15:38:22;6.80;37.40
13960;DHT22;7052;51.050;3.716;2023-02-28T15:40:57;6.80;37.60
13960;DHT22;7052;51.050;3.716;2023-02-28T15:43:26;6.70;37.80
13960;DHT22;7052;51.050;3.716;2023-02-28T15:45:57;6.70;38.00
13960;DHT22;7052;51.050;3.716;2023-02-28T15:48:27;6.70;38.00
13960;DHT22;7052;51.050;3.716;2023-02-28T15:50:57;6.70;38.50
13960;DHT22;7052;51.050;3.716;2023-02-28T15:53:28;6.70;38.30
13960;DHT22;7052;51.050;3.716;2023-02-28T15:56:21;6.70;38.30
13960;DHT22;7052;51.050;3.716;2023-02-28T15:58:49;6.60;38.50
13960;DHT22;7052;51.050;3.716;2023-02-28T16:01:25;6.50;38.50
13960;DHT22;7052;51.050;3.716;2023-02-28T16:03:59;6.50;38.90
13960;DHT22;7052;51.050;3.716;2023-02-28T16:06:37;6.40;39.00
13960;DHT22;7052;51.050;3.716;2023-02-28T16:09:06;6.40;39.10
13960;DHT22;7052;51.050;3.716;2023-02-28T16:11:39;6.30;39.40
13960;DHT22;7052;51.050;3.716;2023-02-28T16:14:09;6.20;39.70
13960;DHT22;7052;51.050;3.716;2023-02-28T16:16:43;6.20;39.90
13960;DHT22;7052;51.050;3.716;2023-02-28T16:19:10;6.10;40.10
13960;DHT22;7052;51.050;3.716;2023-02-28T16:21:38;6.10;40.20
13960;DHT22;7052;51.050;3.716;2023-02-28T16:24:07;6.10;40.30
13960;DHT22;7052;51.050;3.716;2023-02-28T16:26:35;6.00;40.40
13960;DHT22;7052;51.050;3.716;2023-02-28T16:29:05;6.00;40.60
13960;DHT22;7052;51.050;3.716;2023-02-28T16:31:35;5.90;41.00
13960;DHT22;7052;51.050;3.716;2023-02-28T16:34:05;5.90;41.30
13960;DHT22;7052;51.050;3.716;2023-02-28T16:36:34;5.80;41.30
13960;DHT22;7052;51.050;3.716;2023-02-28T16:39:01;5.80;41.30
13960;DHT22;7052;51.050;3.716;2023-02-28T16:41:29;5.70;41.60
13960;DHT22;7052;51.050;3.716;2023-02-28T16:43:59;5.70;41.60
13960;DHT22;7052;51.050;3.716;2023-02-28T16:46:30;5.70;41.70
13960;DHT22;7052;51.050;3.716;2023-02-28T16:49:00;5.70;41.60
13960;DHT22;7052;51.050;3.716;2023-02-28T16:51:32;5.70;41.40
13960;DHT22;7052;51.050;3.716;2023-02-28T16:54:00;6.00;41.60
13960;DHT22;7052;51.050;3.716;2023-02-28T16:56:27;5.70;41.40
13960;DHT22;7052;51.050;3.716;2023-02-28T16:59:04;5.70;41.60
13960;DHT22;7052;51.050;3.716;2023-02-28T17:01:31;5.70;41.80
13960;DHT22;7052;51.050;3.716;2023-02-28T17:03:58;5.50;42.00
13960;DHT22;7052;51.050;3.716;2023-02-28T17:06:27;5.50;42.90
13960;DHT22;7052;51.050;3.716;2023-02-28T17:08:56;5.40;42.60
13960;DHT22;7052;51.050;3.716;2023-02-28T17:11:27;5.40;42.70
13960;DHT22;7052;51.050;3.716;2023-02-28T17:13:54;5.30;42.70